Time;durP1;ratioP1;P1;durP2;ratioP2;P2;SDS_P1;SDS_P2;PMS_P1;PMS_P2;Temp;Humidity;BMP_temperature;BMP_pressure;BME280_temperature;BME280_humidity;BME280_pressure;Samples;Min_cycle;Max_cycle;Signal;HPM_P1;HPM_P2
2022/11/17 00:01:59;;;;;;;10.97;3.67;;;9.30;99.90;;;;;;4901875;29;20225;-66
2022/11/17 00:04:28;;;;;;;8.80;3.80;;;9.30;99.90;;;;;;4883881;29;20228;-65
2022/11/17 00:06:56;;;;;;;9.07;4.07;;;9.30;99.90;;;;;;4884701;29;20201;-67
2022/11/17 00:09:24;;;;;;;9.70;3.83;;;9.40;73.70;;;;;;4904601;29;20669;-66
2022/11/17 00:14:39;;;;;;;7.30;3.77;;;9.30;99.90;;;;;;4902880;29;20205;-65
2022/11/17 00:17:08;;;;;;;6.43;3.97;;;9.30;99.90;;;;;;4904245;29;20193;-65
2022/11/17 00:22:22;;;;;;;7.60;4.30;;;9.50;99.90;;;;;;4902634;29;20215;-65
2022/11/17 00:24:49;;;;;;;5.83;3.60;;;9.50;20.80;;;;;;4902979;29;20238;-65
2022/11/17 00:27:16;;;;;;;10.03;4.87;;;9.50;21.60;;;;;;4905160;29;20204;-64
2022/11/17 00:29:43;;;;;;;9.10;3.57;;;9.60;1.00;;;;;;4887820;29;20605;-65
2022/11/17 00:34:59;;;;;;;7.47;3.80;;;9.70;1.00;;;;;;4904140;29;20271;-65
2022/11/17 00:37:29;;;;;;;9.13;4.40;;;9.70;1.00;;;;;;4903587;29;20694;-65
2022/11/17 00:39:56;;;;;;;8.00;4.27;;;9.70;1.00;;;;;;4903931;29;20201;-65
2022/11/17 00:42:27;;;;;;;9.60;4.37;;;9.70;1.00;;;;;;4887019;29;20215;-65
2022/11/17 00:44:54;;;;;;;10.87;4.30;;;9.70;1.00;;;;;;4887664;29;21175;-65
2022/11/17 00:47:20;;;;;;;8.70;4.17;;;9.60;1.00;;;;;;4901719;29;20217;-65
2022/11/17 00:49:47;;;;;;;7.67;4.00;;;9.70;1.00;;;;;;4903230;29;20652;-65
2022/11/17 00:52:14;;;;;;;8.37;3.80;;;9.70;1.00;;;;;;4903655;29;20213;-64
2022/11/17 00:54:41;;;;;;;9.93;3.90;;;9.70;1.00;;;;;;4888011;29;20261;-64
2022/11/17 00:57:08;;;;;;;10.10;3.90;;;9.70;1.00;;;;;;4883798;29;20264;-64
2022/11/17 00:59:35;;;;;;;9.63;3.93;;;9.70;1.00;;;;;;4901094;29;20211;-65
2022/11/17 01:02:02;;;;;;;7.80;4.00;;;9.70;6.10;;;;;;4900578;29;20657;-65
2022/11/17 01:04:29;;;;;;;8.37;3.80;;;9.70;24.20;;;;;;4901028;29;20758;-64
2022/11/17 01:06:56;;;;;;;6.73;3.90;;;9.70;9.90;;;;;;4898985;29;20295;-64
2022/11/17 01:09:23;;;;;;;6.97;3.87;;;9.70;4.20;;;;;;4900187;29;20738;-65
2022/11/17 01:11:51;;;;;;;8.53;4.27;;;9.70;32.00;;;;;;4882359;29;20236;-65
2022/11/17 01:14:24;;;;;;;6.53;3.97;;;9.80;1.00;;;;;;4880842;29;20614;-65
2022/11/17 01:16:51;;;;;;;9.47;4.07;;;9.80;99.90;;;;;;4902555;29;20201;-64
2022/11/17 01:19:20;;;;;;;8.33;4.60;;;9.70;1.00;;;;;;4901634;29;20287;-64
2022/11/17 01:21:47;;;;;;;10.80;4.50;;;9.60;1.00;;;;;;4889638;29;20540;-65
2022/11/17 01:24:15;;;;;;;10.03;4.33;;;9.60;31.30;;;;;;4884461;29;20197;-65
2022/11/17 01:26:44;;;;;;;8.13;4.97;;;9.60;99.90;;;;;;4901050;29;20229;-64
2022/11/17 01:29:13;;;;;;;9.50;4.50;;;9.50;1.00;;;;;;4900870;29;20459;-64
2022/11/17 01:31:44;;;;;;;8.03;5.07;;;9.50;1.00;;;;;;4898505;29;20223;-64
2022/11/17 01:34:12;;;;;;;13.97;5.93;;;9.40;99.90;;;;;;4898425;29;20196;-65
2022/11/17 01:39:37;;;;;;;16.60;6.57;;;9.30;51.10;;;;;;4875685;29;20224;-65
2022/11/17 01:42:17;;;;;;;10.70;6.77;;;9.20;1.00;;;;;;4896740;29;20215;-65
2022/11/17 01:45:22;;;;;;;14.93;6.70;;;9.10;99.90;;;;;;4899253;29;20204;-64
2022/11/17 01:47:59;;;;;;;10.57;6.80;;;9.10;1.00;;;;;;4882356;29;20303;-64
2022/11/17 01:50:29;;;;;;;13.77;7.03;;;9.10;99.90;;;;;;4889562;29;20296;-65
2022/11/17 01:52:59;;;;;;;14.23;7.17;;;9.00;99.90;;;;;;4902399;29;20224;-64
2022/11/17 01:55:52;;;;;;;14.97;7.63;;;9.10;99.90;;;;;;4899723;29;20204;-64
2022/11/17 01:58:35;;;;;;;17.57;7.67;;;9.10;1.00;;;;;;4897808;29;20200;-65
2022/11/17 02:01:02;;;;;;;13.93;7.50;;;9.10;1.00;;;;;;4897765;29;20197;-66
2022/11/17 02:03:34;;;;;;;15.10;7.67;;;9.10;1.00;;;;;;4884615;29;20208;-65
2022/11/17 02:06:04;;;;;;;13.57;7.80;;;9.20;1.00;;;;;;4899954;29;20192;-65
2022/11/17 02:08:33;;;;;;;12.13;7.37;;;9.20;1.00;;;;;;4902285;29;20197;-65
2022/11/17 02:11:02;;;;;;;12.00;7.57;;;9.20;1.00;;;;;;4882292;29;20768;-66
2022/11/17 02:13:30;;;;;;;10.13;6.90;;;9.20;1.00;;;;;;4896759;29;20292;-64
2022/11/17 02:15:57;;;;;;;10.10;6.50;;;9.20;1.00;;;;;;4882482;29;20216;-63
2022/11/17 02:18:24;;;;;;;16.47;7.03;;;9.30;99.90;;;;;;4884750;29;20215;-64
2022/11/17 02:21:16;;;;;;;12.17;6.63;;;9.40;1.00;;;;;;4882616;29;20205;-65
2022/11/17 02:24:05;;;;;;;10.03;5.83;;;9.40;1.00;;;;;;4896999;29;20193;-64
2022/11/17 02:26:58;;;;;;;6.90;4.80;;;9.40;99.90;;;;;;4899358;29;20200;-64
2022/11/17 02:29:51;;;;;;;10.10;5.53;;;9.50;99.90;;;;;;4882724;29;20661;-66
2022/11/17 02:32:29;;;;;;;7.00;4.90;;;9.50;1.00;;;;;;4897665;29;20801;-64
2022/11/17 02:35:18;;;;;;;7.57;4.53;;;9.60;1.00;;;;;;4898074;29;20571;-65
2022/11/17 02:38:04;;;;;;;8.20;5.00;;;9.50;1.00;;;;;;4884453;29;20216;-64
2022/11/17 02:40:41;;;;;;;8.50;4.60;;;9.50;1.00;;;;;;4901705;29;20208;-66
2022/11/17 02:46:22;;;;;;;7.57;4.87;;;9.50;1.00;;;;;;4897876;29;20283;-65
2022/11/17 02:48:56;;;;;;;10.67;5.40;;;9.60;99.90;;;;;;4900233;29;20204;-65
2022/11/17 02:51:24;;;;;;;17.17;5.43;;;9.60;96.40;;;;;;4900710;29;20212;-64
2022/11/17 02:53:56;;;;;;;6.90;5.23;;;9.60;1.00;;;;;;4883149;29;20206;-64
2022/11/17 02:56:23;;;;;;;11.50;5.17;;;9.60;1.00;;;;;;4898680;29;20193;-67
2022/11/17 02:58:56;;;;;;;10.97;6.00;;;9.50;1.00;;;;;;4900077;29;20275;-65
2022/11/17 03:01:29;;;;;;;8.53;5.43;;;9.40;1.00;;;;;;4899357;29;20203;-65
2022/11/17 03:04:14;;;;;;;10.70;7.10;;;9.40;1.00;;;;;;4891459;29;20254;-66
2022/11/17 03:06:50;;;;;;;10.90;5.73;;;9.40;99.90;;;;;;4900722;29;20291;-66
2022/11/17 03:09:34;;;;;;;9.13;5.30;;;9.40;1.00;;;;;;4899957;29;21041;-64
2022/11/17 03:12:29;;;;;;;12.70;6.13;;;9.30;1.00;;;;;;4900266;29;20578;-64
2022/11/17 03:15:17;;;;;;;7.10;6.23;;;9.30;99.90;;;;;;4901186;29;20544;-64
2022/11/17 03:17:58;;;;;;;8.83;6.17;;;9.20;99.90;;;;;;4892468;29;20303;-66
2022/11/17 03:20:32;;;;;;;10.97;6.60;;;9.30;1.00;;;;;;4900892;29;20195;-67
2022/11/17 03:23:23;;;;;;;9.47;6.30;;;9.30;99.90;;;;;;4901875;29;20204;-65
2022/11/17 03:25:56;;;;;;;10.10;6.60;;;9.30;99.90;;;;;;4902107;29;20279;-66
2022/11/17 03:28:28;;;;;;;7.63;6.70;;;9.20;99.90;;;;;;4898489;29;20200;-64
2022/11/17 03:30:56;;;;;;;9.00;6.20;;;9.30;1.00;;;;;;4902158;29;20197;-65
2022/11/17 03:33:24;;;;;;;6.20;5.27;;;9.30;1.00;;;;;;4903770;29;20204;-65
2022/11/17 03:36:05;;;;;;;8.30;5.40;;;9.30;79.00;;;;;;4901305;29;20196;-65
2022/11/17 03:38:37;;;;;;;12.13;5.53;;;9.30;99.90;;;;;;4898858;29;20199;-66
2022/11/17 03:41:07;;;;;;;8.60;5.30;;;9.10;1.00;;;;;;4901614;29;20197;-67
2022/11/17 03:43:34;;;;;;;13.57;5.93;;;9.00;99.90;;;;;;4902601;29;20230;-67
2022/11/17 03:46:07;;;;;;;9.73;5.60;;;8.90;99.90;;;;;;4885800;29;20212;-69
2022/11/17 03:48:39;;;;;;;12.10;5.53;;;8.80;99.90;;;;;;4900694;29;20362;-69
2022/11/17 03:51:21;;;;;;;10.73;5.70;;;8.80;99.90;;;;;;4901846;29;20207;-70
2022/11/17 03:53:48;;;;;;;7.13;5.40;;;8.80;99.90;;;;;;4901363;29;20215;-68
2022/11/17 03:56:41;;;;;;;10.37;6.10;;;8.80;99.90;;;;;;4899819;29;20209;-70
2022/11/17 03:59:15;;;;;;;10.20;6.50;;;8.80;99.90;;;;;;4901496;29;20205;-73
2022/11/17 04:01:42;;;;;;;0.40;0.40;;;8.80;99.90;;;;;;4885072;29;20231;-69
2022/11/17 04:04:19;;;;;;;0.50;0.50;;;8.80;99.90;;;;;;4887120;29;20740;-70
2022/11/17 04:06:48;;;;;;;0.40;0.40;;;8.80;99.90;;;;;;4904922;29;20686;-71
2022/11/17 04:09:15;;;;;;;0.40;0.40;;;8.80;99.90;;;;;;4903500;29;20212;-70
2022/11/17 04:17:19;;;;;;;0.40;0.40;;;8.80;99.90;;;;;;4897284;29;20205;-70
2022/11/17 04:19:47;;;;;;;0.40;0.40;;;8.80;99.90;;;;;;4869213;29;20840;-69
2022/11/17 04:22:14;;;;;;;0.40;0.40;;;8.80;99.90;;;;;;4901770;29;20580;-70
2022/11/17 04:24:41;;;;;;;0.40;0.40;;;8.80;99.90;;;;;;4901327;29;20192;-69
2022/11/17 04:29:53;;;;;;;0.40;0.40;;;8.80;99.90;;;;;;4899147;29;20197;-70
2022/11/17 04:32:20;;;;;;;0.40;0.40;;;8.80;99.90;;;;;;4893834;29;20645;-70
2022/11/17 04:34:47;;;;;;;0.40;0.40;;;8.70;99.90;;;;;;4900628;29;20193;-70
2022/11/17 04:37:17;;;;;;;0.40;0.40;;;8.70;99.90;;;;;;4899047;29;20280;-69
2022/11/17 04:39:44;;;;;;;0.40;0.40;;;8.70;99.90;;;;;;4900698;29;20201;-68
2022/11/17 04:42:11;;;;;;;0.40;0.40;;;8.80;99.90;;;;;;4883897;29;20208;-69
2022/11/17 04:44:38;;;;;;;0.40;0.40;;;8.70;99.90;;;;;;4899661;29;20204;-68
2022/11/17 04:47:05;;;;;;;0.40;0.40;;;8.80;99.90;;;;;;4881569;29;20204;-70
2022/11/17 04:49:33;;;;;;;0.40;0.40;;;8.70;99.90;;;;;;4898140;29;20208;-70
2022/11/17 04:52:00;;;;;;;0.30;0.30;;;8.70;99.90;;;;;;4897879;29;20213;-69
2022/11/17 04:54:27;;;;;;;0.80;0.80;;;8.70;99.90;;;;;;4901433;29;20293;-72
2022/11/17 04:56:55;;;;;;;0.40;0.40;;;8.70;99.90;;;;;;4901307;29;20196;-69
2022/11/17 04:59:22;;;;;;;0.40;0.40;;;8.70;99.90;;;;;;4901463;29;20683;-67
2022/11/17 05:01:50;;;;;;;0.40;0.40;;;8.70;99.90;;;;;;4885659;29;20261;-65
2022/11/17 05:04:54;;;;;;;0.30;0.30;;;8.70;99.90;;;;;;4901431;29;20256;-68
2022/11/17 05:07:07;;;;;;;0.40;0.40;;;8.70;99.90;;;;;;4903379;29;20878;-67
2022/11/17 05:09:34;;;;;;;0.40;0.40;;;8.70;99.90;;;;;;4900866;29;20639;-64
2022/11/17 05:14:49;;;;;;;0.30;0.30;;;8.70;99.90;;;;;;4898470;29;20197;-64
2022/11/17 05:17:16;;;;;;;0.30;0.30;;;8.70;99.90;;;;;;4898383;29;20197;-64
2022/11/17 05:19:46;;;;;;;0.40;0.40;;;8.70;99.90;;;;;;4900634;29;20212;-64
2022/11/17 05:25:08;;;;;;;0.40;0.40;;;8.70;99.90;;;;;;4898457;29;20212;-65
2022/11/17 05:27:35;;;;;;;0.40;0.40;;;8.70;99.90;;;;;;4899103;29;20197;-65
2022/11/17 05:30:05;;;;;;;0.40;0.40;;;8.70;99.90;;;;;;4898075;29;20203;-65
2022/11/17 05:32:32;;;;;;;0.40;0.40;;;8.70;99.90;;;;;;4896816;29;20208;-67
2022/11/17 05:34:59;;;;;;;0.40;0.40;;;8.70;99.90;;;;;;4897735;29;20200;-66
2022/11/17 05:37:26;;;;;;;0.40;0.40;;;8.60;99.90;;;;;;4875804;29;20361;-67
2022/11/17 05:39:53;;;;;;;0.40;0.40;;;8.70;99.90;;;;;;4899686;29;20219;-67
2022/11/17 05:42:20;;;;;;;0.40;0.40;;;8.70;99.90;;;;;;4890819;29;20224;-66
2022/11/17 05:44:47;;;;;;;0.30;0.30;;;8.70;99.90;;;;;;4883012;29;20200;-66
2022/11/17 05:47:14;;;;;;;0.40;0.40;;;8.70;99.90;;;;;;4883066;29;20291;-66
2022/11/17 05:49:41;;;;;;;0.40;0.40;;;8.70;99.90;;;;;;4895832;29;20197;-68
2022/11/17 05:52:09;;;;;;;0.40;0.40;;;8.70;99.90;;;;;;4899649;29;20211;-67
2022/11/17 05:54:35;;;;;;;0.40;0.40;;;8.70;99.90;;;;;;4899783;29;20235;-68
2022/11/17 05:57:08;;;;;;;0.40;0.40;;;8.70;99.90;;;;;;4897429;29;20196;-66
2022/11/17 05:59:58;;;;;;;0.40;0.40;;;8.60;99.90;;;;;;4901406;29;20382;-66
2022/11/17 06:02:30;;;;;;;0.40;0.40;;;8.60;99.90;;;;;;4885168;29;20197;-67
2022/11/17 06:04:57;;;;;;;0.30;0.30;;;8.50;99.90;;;;;;4903012;29;20279;-66
2022/11/17 06:07:25;;;;;;;0.40;0.40;;;8.50;99.90;;;;;;4902670;29;20546;-67
2022/11/17 06:09:53;;;;;;;0.37;0.37;;;8.50;99.90;;;;;;4901767;29;20197;-65
2022/11/17 06:12:20;;;;;;;0.33;0.33;;;8.50;99.90;;;;;;4900281;29;20236;-66
2022/11/17 06:14:47;;;;;;;0.40;0.40;;;8.50;99.90;;;;;;4900252;29;20197;-65
2022/11/17 06:17:23;;;;;;;0.40;0.40;;;8.50;99.90;;;;;;4881392;29;20214;-66
2022/11/17 06:20:01;;;;;;;0.40;0.40;;;8.50;99.90;;;;;;4899699;29;20853;-66
2022/11/17 06:22:29;;;;;;;0.40;0.40;;;8.50;99.90;;;;;;4900500;29;20192;-65
2022/11/17 06:24:56;;;;;;;0.50;0.50;;;8.50;99.90;;;;;;4878384;29;20222;-68
2022/11/17 06:27:24;;;;;;;0.40;0.40;;;8.60;99.90;;;;;;4879835;29;20205;-65
2022/11/17 06:29:52;;;;;;;0.40;0.40;;;8.60;99.90;;;;;;4901838;29;20238;-66
2022/11/17 06:32:19;;;;;;;0.40;0.40;;;8.60;99.90;;;;;;4890011;29;21117;-66
2022/11/17 06:34:48;;;;;;;0.40;0.40;;;8.70;99.90;;;;;;4899343;29;20669;-67
2022/11/17 06:37:22;;;;;;;0.33;0.33;;;8.70;99.90;;;;;;4899005;29;20268;-66
2022/11/17 06:39:52;;;;;;;0.40;0.40;;;8.70;99.90;;;;;;4899827;29;20276;-67
2022/11/17 06:43:02;;;;;;;0.33;0.33;;;8.80;99.90;;;;;;4898183;29;20200;-67
2022/11/17 06:45:06;;;;;;;0.40;0.40;;;8.80;99.90;;;;;;4898499;29;20652;-67
2022/11/17 06:47:33;;;;;;;0.40;0.40;;;8.80;99.90;;;;;;4898270;29;20197;-66
2022/11/17 06:50:00;;;;;;;0.40;0.40;;;8.90;99.90;;;;;;4880183;29;20208;-66
2022/11/17 06:52:29;;;;;;;0.40;0.40;;;8.90;99.90;;;;;;4901090;29;20872;-67
2022/11/17 06:54:56;;;;;;;0.40;0.40;;;8.90;99.90;;;;;;4900227;29;20207;-67
2022/11/17 06:57:23;;;;;;;0.40;0.40;;;8.90;99.90;;;;;;4900013;29;20193;-66
2022/11/17 06:59:51;;;;;;;0.40;0.40;;;8.90;99.90;;;;;;4899982;29;20569;-67
2022/11/17 07:02:18;;;;;;;0.40;0.40;;;8.90;99.90;;;;;;4895341;29;20252;-66
2022/11/17 07:04:45;;;;;;;0.30;0.30;;;9.00;99.90;;;;;;4898204;29;20256;-67
2022/11/17 07:07:12;;;;;;;0.40;0.40;;;8.90;99.90;;;;;;4898125;29;20230;-66
2022/11/17 07:09:39;;;;;;;0.40;0.40;;;9.00;99.90;;;;;;4896931;29;20200;-66
2022/11/17 07:12:06;;;;;;;0.40;0.40;;;9.10;99.90;;;;;;4897696;29;20225;-66
2022/11/17 07:14:33;;;;;;;0.30;0.30;;;9.10;99.90;;;;;;4894470;29;20304;-65
2022/11/17 07:17:00;;;;;;;0.30;0.30;;;9.10;99.90;;;;;;4882973;29;20280;-67
2022/11/17 07:19:27;;;;;;;0.30;0.30;;;9.20;99.90;;;;;;4900547;29;20271;-68
2022/11/17 07:21:54;;;;;;;0.30;0.30;;;9.30;99.90;;;;;;4898994;29;20201;-67
2022/11/17 07:24:21;;;;;;;0.30;0.30;;;9.30;99.90;;;;;;4900498;29;20870;-68
2022/11/17 07:26:48;;;;;;;0.40;0.40;;;9.30;99.90;;;;;;4899376;29;20205;-67
2022/11/17 07:29:15;;;;;;;0.40;0.40;;;9.30;99.90;;;;;;4900240;29;20293;-68
2022/11/17 07:31:42;;;;;;;0.40;0.40;;;9.30;99.90;;;;;;4901864;29;20259;-67
2022/11/17 07:34:09;;;;;;;0.40;0.40;;;9.40;99.90;;;;;;4899749;29;20213;-67
2022/11/17 07:36:36;;;;;;;0.30;0.30;;;9.30;99.90;;;;;;4853209;29;20198;-66
2022/11/17 07:39:04;;;;;;;0.40;0.40;;;9.40;99.90;;;;;;4901046;29;20346;-66
2022/11/17 07:41:31;;;;;;;0.40;0.40;;;9.40;99.90;;;;;;4898499;29;20232;-67
2022/11/17 07:43:58;;;;;;;0.40;0.40;;;9.40;99.90;;;;;;4900434;29;20256;-67
2022/11/17 07:46:26;;;;;;;0.40;0.40;;;9.50;99.90;;;;;;4900462;29;20208;-67
2022/11/17 07:48:54;;;;;;;0.40;0.40;;;9.50;99.90;;;;;;4882711;29;20288;-66
2022/11/17 07:51:21;;;;;;;0.30;0.30;;;9.50;99.90;;;;;;4900074;29;20201;-66
2022/11/17 07:53:48;;;;;;;0.40;0.40;;;9.50;99.90;;;;;;4900790;29;20309;-66
2022/11/17 07:56:15;;;;;;;0.40;0.40;;;9.50;99.90;;;;;;4899854;29;20625;-68
2022/11/17 07:58:42;;;;;;;0.40;0.40;;;9.60;99.90;;;;;;4900383;29;20193;-66
2022/11/17 08:01:15;;;;;;;0.40;0.40;;;9.60;99.90;;;;;;4898195;29;20661;-68
2022/11/17 08:03:43;;;;;;;0.40;0.40;;;9.60;99.90;;;;;;4898316;29;20200;-67
2022/11/17 08:06:10;;;;;;;0.40;0.40;;;9.60;99.90;;;;;;4897807;29;20559;-67
2022/11/17 08:08:37;;;;;;;0.40;0.40;;;9.70;99.90;;;;;;4904871;29;20207;-68
2022/11/17 08:11:07;;;;;;;0.40;0.40;;;9.70;99.90;;;;;;4887261;29;20228;-68
2022/11/17 08:13:36;;;;;;;0.30;0.30;;;9.70;99.90;;;;;;4857835;29;20734;-68
2022/11/17 08:16:03;;;;;;;0.40;0.40;;;9.70;99.90;;;;;;4903943;29;20219;-68
2022/11/17 08:18:30;;;;;;;0.40;0.40;;;9.70;99.90;;;;;;4902576;29;20251;-67
2022/11/17 08:21:08;;;;;;;0.30;0.30;;;9.70;99.90;;;;;;4901038;29;20213;-66
2022/11/17 08:23:36;;;;;;;0.40;0.40;;;9.70;99.90;;;;;;4901072;29;20200;-67
2022/11/17 08:26:05;;;;;;;0.40;0.40;;;9.70;99.90;;;;;;4903588;29;20236;-67
2022/11/17 08:28:35;;;;;;;0.40;0.40;;;9.70;99.90;;;;;;4893020;29;20238;-66
2022/11/17 08:31:04;;;;;;;0.40;0.40;;;9.70;99.90;;;;;;4897229;29;20624;-66
2022/11/17 08:33:32;;;;;;;0.37;0.37;;;9.70;99.90;;;;;;4898946;29;20223;-66
2022/11/17 08:36:00;;;;;;;0.37;0.37;;;9.70;99.90;;;;;;4903197;29;20295;-66
2022/11/17 08:38:28;;;;;;;1.70;1.70;;;9.70;99.90;;;;;;4901593;29;20656;-67
2022/11/17 08:41:00;;;;;;;0.33;0.33;;;9.70;99.90;;;;;;4902913;29;20204;-67
2022/11/17 08:43:28;;;;;;;0.33;0.33;;;9.70;99.90;;;;;;4870293;29;20220;-66
2022/11/17 08:45:55;;;;;;;0.40;0.40;;;9.70;99.90;;;;;;4903287;29;20715;-66
2022/11/17 08:48:22;;;;;;;0.30;0.30;;;9.70;99.90;;;;;;4900550;29;20196;-66
2022/11/17 08:50:49;;;;;;;0.40;0.40;;;9.70;99.90;;;;;;4901784;29;20216;-65
2022/11/17 08:53:19;;;;;;;0.40;0.40;;;9.70;99.90;;;;;;4899343;29;20719;-65
2022/11/17 08:55:46;;;;;;;0.40;0.40;;;9.70;99.90;;;;;;4901714;29;20220;-66
2022/11/17 08:58:13;;;;;;;0.40;0.40;;;9.80;99.90;;;;;;4899670;29;20280;-67
2022/11/17 09:00:41;;;;;;;0.40;0.40;;;9.80;99.90;;;;;;4901096;29;20283;-66
2022/11/17 09:03:09;;;;;;;0.40;0.40;;;9.80;99.90;;;;;;4899146;29;20584;-67
2022/11/17 09:05:39;;;;;;;0.40;0.40;;;9.80;99.90;;;;;;4884317;29;20236;-65
2022/11/17 09:08:07;;;;;;;0.40;0.40;;;9.80;99.90;;;;;;4899286;29;20192;-68
2022/11/17 09:10:54;;;;;;;0.40;0.40;;;9.80;99.90;;;;;;4901146;29;20298;-68
2022/11/17 09:13:21;;;;;;;0.30;0.30;;;9.80;99.90;;;;;;4884256;29;20228;-65
2022/11/17 09:15:48;;;;;;;0.30;0.30;;;9.80;99.90;;;;;;4885415;29;20349;-67
2022/11/17 09:18:15;;;;;;;0.40;0.40;;;9.80;99.90;;;;;;4896272;29;20215;-66
2022/11/17 09:20:42;;;;;;;0.40;0.40;;;9.80;99.90;;;;;;4901463;29;20628;-66
2022/11/17 09:23:12;;;;;;;0.40;0.40;;;9.80;99.90;;;;;;4885986;29;20196;-67
2022/11/17 09:25:39;;;;;;;0.40;0.40;;;9.80;99.90;;;;;;4892790;29;20195;-66
2022/11/17 09:28:06;;;;;;;0.40;0.40;;;9.80;99.90;;;;;;4902209;29;20200;-67
2022/11/17 09:30:33;;;;;;;0.40;0.40;;;9.80;99.90;;;;;;4900316;29;20208;-65
2022/11/17 09:32:59;;;;;;;0.40;0.40;;;9.80;99.90;;;;;;4898795;29;20507;-66
2022/11/17 09:35:26;;;;;;;0.40;0.40;;;9.80;99.90;;;;;;4901418;29;20190;-65
2022/11/17 09:37:59;;;;;;;0.40;0.40;;;9.90;99.90;;;;;;4902387;29;20702;-65
2022/11/17 09:40:27;;;;;;;0.40;0.40;;;9.90;99.90;;;;;;4900716;29;20343;-65
2022/11/17 09:43:05;;;;;;;0.30;0.30;;;9.90;99.90;;;;;;4884950;29;20216;-65
2022/11/17 09:45:36;;;;;;;0.40;0.40;;;10.00;99.90;;;;;;4901171;29;20283;-66
2022/11/17 09:48:20;;;;;;;0.40;0.40;;;10.10;99.90;;;;;;4884319;29;20200;-65
2022/11/17 09:51:11;;;;;;;0.40;0.40;;;10.10;99.90;;;;;;4900917;29;20197;-65
2022/11/17 09:53:47;;;;;;;0.40;0.40;;;10.20;99.90;;;;;;4899673;29;20240;-65
2022/11/17 09:56:14;;;;;;;0.30;0.30;;;10.20;99.90;;;;;;4900320;29;20281;-66
2022/11/17 09:59:03;;;;;;;0.30;0.30;;;10.30;99.90;;;;;;4883353;29;20207;-67
2022/11/17 10:01:30;;;;;;;0.30;0.30;;;10.20;99.90;;;;;;4896155;29;20783;-65
2022/11/17 10:04:00;;;;;;;0.40;0.40;;;10.40;99.90;;;;;;4898206;29;20244;-66
2022/11/17 10:06:30;;;;;;;0.40;0.40;;;10.30;99.90;;;;;;4868730;29;20209;-66
2022/11/17 10:09:04;;;;;;;0.30;0.30;;;10.30;99.90;;;;;;5119499;23;20322;-65
2022/11/17 10:11:37;;;;;;;0.30;0.30;;;10.30;99.90;;;;;;4844742;29;20305;-65
2022/11/17 10:14:09;;;;;;;0.40;0.40;;;10.20;99.90;;;;;;4859041;29;20215;-64
2022/11/17 10:16:39;;;;;;;0.40;0.40;;;10.10;99.90;;;;;;4844148;29;20194;-65
2022/11/17 10:19:29;;;;;;;0.40;0.40;;;10.10;99.90;;;;;;4843459;29;20259;-64
2022/11/17 10:22:02;;;;;;;0.40;0.40;;;10.10;99.90;;;;;;4846041;29;20633;-62
2022/11/17 10:24:57;;;;;;;0.40;0.40;;;10.20;99.90;;;;;;4845501;29;20693;-63
2022/11/17 10:27:31;;;;;;;0.40;0.40;;;10.20;99.90;;;;;;4845781;29;20209;-61
2022/11/17 10:30:01;;;;;;;0.40;0.40;;;10.30;99.90;;;;;;4830160;29;20749;-62
2022/11/17 10:32:32;;;;;;;0.40;0.40;;;10.30;99.90;;;;;;4845120;29;20259;-61
2022/11/17 10:35:27;;;;;;;0.40;0.40;;;10.40;99.90;;;;;;4842242;29;21247;-61
2022/11/17 10:37:55;;;;;;;0.40;0.40;;;10.50;99.90;;;;;;4844264;29;20229;-61
2022/11/17 10:40:44;;;;;;;0.40;0.40;;;10.70;99.90;;;;;;4846600;29;20199;-62
2022/11/17 10:43:11;;;;;;;0.40;0.40;;;10.80;99.90;;;;;;4844501;29;20313;-62
2022/11/17 10:45:48;;;;;;;0.20;0.20;;;11.00;99.90;;;;;;4844552;29;20202;-61
2022/11/17 10:48:21;;;;;;;0.40;0.40;;;11.10;99.90;;;;;;4844329;29;21074;-63
2022/11/17 10:50:53;;;;;;;0.30;0.30;;;11.10;99.90;;;;;;4843283;29;20226;-61
2022/11/17 10:53:28;;;;;;;0.33;0.33;;;11.10;99.90;;;;;;4845145;29;20686;-63
2022/11/17 10:56:18;;;;;;;0.40;0.40;;;11.00;99.90;;;;;;4845830;29;20774;-62
2022/11/17 10:58:55;;;;;;;0.30;0.30;;;11.10;99.90;;;;;;4844543;29;20853;-62
2022/11/17 11:01:38;;;;;;;0.40;0.40;;;11.00;99.90;;;;;;4860041;29;20561;-62
2022/11/17 11:04:24;;;;;;;0.40;0.40;;;10.90;99.90;;;;;;4843618;29;20206;-62
2022/11/17 11:07:18;;;;;;;0.40;0.40;;;10.90;99.90;;;;;;4844387;29;20203;-63
2022/11/17 11:10:06;;;;;;;0.40;0.40;;;11.10;99.90;;;;;;4843314;29;20830;-62
2022/11/17 11:12:51;;;;;;;0.40;0.40;;;10.90;99.90;;;;;;4845398;29;20237;-62
2022/11/17 11:15:21;;;;;;;0.37;0.37;;;11.00;99.90;;;;;;4846641;29;20218;-62
2022/11/17 11:17:49;;;;;;;0.40;0.40;;;11.10;99.90;;;;;;4857875;29;20794;-62
2022/11/17 11:20:20;;;;;;;0.40;0.40;;;11.00;99.90;;;;;;4860133;29;20255;-63
2022/11/17 11:23:08;;;;;;;0.30;0.30;;;11.10;99.90;;;;;;4837457;29;20263;-63
2022/11/17 11:25:59;;;;;;;0.40;0.40;;;11.20;99.90;;;;;;4858480;29;20217;-62
2022/11/17 11:28:40;;;;;;;0.40;0.40;;;11.20;99.90;;;;;;4845281;29;20277;-63
2022/11/17 11:31:41;;;;;;;0.40;0.40;;;11.40;1.00;;;;;;4845539;29;20238;-65
2022/11/17 11:34:43;;;;;;;0.40;0.40;;;11.30;99.90;;;;;;4835133;29;20254;-62
2022/11/17 11:37:14;;;;;;;0.40;0.40;;;11.40;1.00;;;;;;4801774;29;20235;-62
2022/11/17 11:39:55;;;;;;;0.40;0.40;;;11.50;1.00;;;;;;4844601;29;20202;-64
2022/11/17 11:42:22;;;;;;;0.40;0.40;;;11.70;99.90;;;;;;4847716;29;20284;-64
2022/11/17 11:45:27;;;;;;;0.30;0.30;;;11.80;1.00;;;;;;4863458;29;20690;-63
2022/11/17 11:48:12;;;;;;;0.40;0.40;;;12.20;1.00;;;;;;4845634;29;20285;-64
2022/11/17 11:50:48;;;;;;;0.40;0.40;;;12.20;1.00;;;;;;4847455;29;20202;-63
2022/11/17 11:53:40;;;;;;;0.37;0.37;;;12.10;1.00;;;;;;4860595;29;20206;-63
2022/11/17 11:56:29;;;;;;;0.30;0.30;;;12.20;1.00;;;;;;4845651;29;20302;-63
2022/11/17 11:59:06;;;;;;;0.23;0.23;;;12.10;99.90;;;;;;4847067;29;20277;-61
2022/11/17 12:01:58;;;;;;;0.40;0.40;;;12.10;99.90;;;;;;4849262;29;20216;-63
2022/11/17 12:04:32;;;;;;;0.40;0.40;;;12.20;99.90;;;;;;4850211;29;20575;-63
2022/11/17 12:07:27;;;;;;;0.37;0.37;;;12.30;99.90;;;;;;4848862;29;20207;-61
2022/11/17 12:10:27;;;;;;;0.40;0.40;;;12.40;99.90;;;;;;4847325;29;20262;-61
2022/11/17 12:12:54;;;;;;;0.40;0.40;;;12.60;99.90;;;;;;4842085;29;20219;-63
2022/11/17 12:15:21;;;;;;;0.40;0.40;;;12.60;99.90;;;;;;4847315;29;20232;-64
2022/11/17 12:17:51;;;;;;;0.40;0.40;;;12.60;99.90;;;;;;4861942;29;20246;-62
2022/11/17 12:20:30;;;;;;;0.40;0.40;;;12.50;99.90;;;;;;4862229;29;20709;-62
2022/11/17 12:23:24;;;;;;;0.40;0.40;;;12.60;99.90;;;;;;4847143;29;20199;-64
2022/11/17 12:25:54;;;;;;;0.30;0.30;;;12.60;77.00;;;;;;4848586;29;20308;-62
2022/11/17 12:28:40;;;;;;;0.30;0.30;;;13.00;8.90;;;;;;4860748;29;20285;-61
2022/11/17 12:31:31;;;;;;;0.40;0.40;;;13.20;1.00;;;;;;4830168;29;20230;-63
2022/11/17 12:33:58;;;;;;;0.40;0.40;;;13.20;1.00;;;;;;4847252;29;20226;-62
2022/11/17 12:36:30;;;;;;;0.40;0.40;;;13.00;1.00;;;;;;4848759;29;20205;-62
2022/11/17 12:39:07;;;;;;;0.30;0.30;;;12.90;1.00;;;;;;4848637;29;20202;-63
2022/11/17 12:41:49;;;;;;;0.40;0.40;;;12.90;1.00;;;;;;4862999;29;20211;-62
2022/11/17 12:44:32;;;;;;;0.33;0.33;;;12.90;1.00;;;;;;4846349;29;20221;-63
2022/11/17 12:47:17;;;;;;;0.30;0.30;;;12.90;1.00;;;;;;4843180;29;20358;-62
2022/11/17 12:49:50;;;;;;;0.40;0.40;;;12.80;1.00;;;;;;4846128;29;20278;-63
2022/11/17 12:52:28;;;;;;;0.30;0.30;;;12.80;1.00;;;;;;4859834;29;20207;-62
2022/11/17 12:55:05;;;;;;;0.40;0.40;;;12.80;1.00;;;;;;4846102;29;20278;-61
2022/11/17 12:57:33;;;;;;;0.40;0.40;;;12.90;1.00;;;;;;4848371;29;20701;-62
2022/11/17 13:00:06;;;;;;;0.30;0.30;;;12.90;1.00;;;;;;4846323;29;20206;-62
2022/11/17 13:02:39;;;;;;;0.40;0.40;;;12.80;1.00;;;;;;4846549;29;20234;-64
2022/11/17 13:05:18;;;;;;;0.30;0.30;;;12.70;1.00;;;;;;4850007;29;20206;-61
2022/11/17 13:07:45;;;;;;;0.30;0.30;;;12.70;1.00;;;;;;4845501;29;20199;-64
2022/11/17 13:10:23;;;;;;;0.30;0.30;;;12.50;1.00;;;;;;4845477;29;20333;-61
2022/11/17 13:13:07;;;;;;;0.30;0.30;;;12.50;1.00;;;;;;4843252;29;20212;-62
2022/11/17 13:15:34;;;;;;;0.30;0.30;;;12.40;1.00;;;;;;4861559;29;20266;-63
2022/11/17 13:18:01;;;;;;;0.30;0.30;;;12.50;1.00;;;;;;4844143;29;20206;-62
2022/11/17 13:20:29;;;;;;;0.30;0.30;;;12.60;1.00;;;;;;4845545;29;20553;-63
2022/11/17 13:23:05;;;;;;;0.40;0.40;;;12.80;1.00;;;;;;4841462;29;20237;-65
2022/11/17 13:25:33;;;;;;;0.30;0.30;;;12.90;1.00;;;;;;4827617;29;20202;-63
2022/11/17 13:28:00;;;;;;;0.30;0.30;;;12.90;1.00;;;;;;4857334;29;20233;-61
2022/11/17 13:30:31;;;;;;;0.40;0.40;;;12.90;1.00;;;;;;4843457;29;23098;-62
2022/11/17 13:33:01;;;;;;;0.40;0.40;;;12.90;1.00;;;;;;4843117;29;20878;-63
2022/11/17 13:35:31;;;;;;;0.40;0.40;;;12.70;1.00;;;;;;4847349;29;20294;-62
2022/11/17 13:38:02;;;;;;;0.33;0.33;;;12.70;1.00;;;;;;4839425;29;20266;-62
2022/11/17 13:40:32;;;;;;;0.20;0.20;;;12.70;1.00;;;;;;4844681;29;20231;-62
2022/11/17 13:43:01;;;;;;;0.40;0.40;;;12.60;1.00;;;;;;4842762;29;20218;-64
2022/11/17 13:45:29;;;;;;;0.33;0.33;;;12.70;1.00;;;;;;4860430;29;20603;-64
2022/11/17 13:47:58;;;;;;;0.70;0.70;;;12.60;1.00;;;;;;4847232;29;20221;-64
2022/11/17 13:50:28;;;;;;;0.40;0.40;;;12.60;1.00;;;;;;4844476;29;20234;-62
2022/11/17 13:53:23;;;;;;;0.40;0.40;;;12.50;1.00;;;;;;4860618;29;20237;-64